createdAt,value
2022-11-08T00:00:01.452Z,2.20
2022-11-08T00:02:28.942Z,2.67
2022-11-08T00:04:56.532Z,3.13
2022-11-08T00:07:42.147Z,2.42
2022-11-08T00:10:29.205Z,2.58
2022-11-08T00:13:14.869Z,2.58
2022-11-08T00:15:42.063Z,2.05
2022-11-08T00:18:09.625Z,2.25
2022-11-08T00:20:36.643Z,2.60
2022-11-08T00:23:04.745Z,2.42
2022-11-08T00:25:31.866Z,2.70
2022-11-08T00:27:58.957Z,2.67
2022-11-08T00:30:26.230Z,2.47
2022-11-08T00:32:53.490Z,2.92
2022-11-08T00:35:20.491Z,2.58
2022-11-08T00:37:47.795Z,2.05
2022-11-08T00:40:15.093Z,2.40
2022-11-08T00:42:42.165Z,2.50
2022-11-08T00:45:09.894Z,2.22
2022-11-08T00:47:36.905Z,2.88
2022-11-08T00:50:04.280Z,2.38
2022-11-08T00:52:31.520Z,2.53
2022-11-08T00:54:58.756Z,2.85
2022-11-08T00:57:46.783Z,2.22
2022-11-08T01:00:13.880Z,2.25
2022-11-08T01:02:41.239Z,2.05
2022-11-08T01:05:08.705Z,2.38
2022-11-08T01:07:35.749Z,2.55
2022-11-08T01:10:02.921Z,3.00
2022-11-08T01:12:30.127Z,2.33
2022-11-08T01:14:57.371Z,2.38
2022-11-08T01:17:24.580Z,2.55
2022-11-08T01:19:51.598Z,3.05
2022-11-08T01:22:18.728Z,2.60
2022-11-08T01:24:45.747Z,2.53
2022-11-08T01:27:13.186Z,2.75
2022-11-08T01:29:40.195Z,2.83
2022-11-08T01:32:07.688Z,2.50
2022-11-08T01:34:35.002Z,2.85
2022-11-08T01:37:02.032Z,2.55
2022-11-08T01:39:33.244Z,2.63
2022-11-08T01:42:00.837Z,2.40
2022-11-08T01:44:27.945Z,2.30
2022-11-08T01:46:55.372Z,3.15
2022-11-08T01:49:22.470Z,2.72
2022-11-08T01:51:53.293Z,3.63
2022-11-08T01:54:28.576Z,2.60
2022-11-08T01:56:58.579Z,2.38
2022-11-08T01:59:26.327Z,2.95
2022-11-08T02:01:54.057Z,2.95
2022-11-08T02:04:21.273Z,3.60
2022-11-08T02:06:49.261Z,3.00
2022-11-08T02:09:19.100Z,3.25
2022-11-08T02:11:48.478Z,3.35
2022-11-08T02:14:16.991Z,3.40
2022-11-08T02:16:44.456Z,3.35
2022-11-08T02:19:20.124Z,2.85
2022-11-08T02:22:01.659Z,3.38
2022-11-08T02:24:28.904Z,3.60
2022-11-08T02:26:57.834Z,3.33
2022-11-08T02:29:36.544Z,3.15
2022-11-08T02:32:04.858Z,3.90
2022-11-08T02:34:37.835Z,2.95
2022-11-08T02:37:06.958Z,5.20
2022-11-08T02:39:34.460Z,4.38
2022-11-08T02:42:02.656Z,3.45
2022-11-08T02:44:29.842Z,5.38
2022-11-08T02:46:58.235Z,3.42
2022-11-08T02:49:25.868Z,3.55
2022-11-08T02:51:53.925Z,4.50
2022-11-08T02:54:21.370Z,3.95
2022-11-08T02:56:48.794Z,4.07
2022-11-08T02:59:15.995Z,3.80
2022-11-08T03:01:43.348Z,3.40
2022-11-08T03:04:10.642Z,3.95
2022-11-08T03:06:37.774Z,4.53
2022-11-08T03:09:05.495Z,4.30
2022-11-08T03:11:32.795Z,4.28
2022-11-08T03:14:00.017Z,4.00
2022-11-08T03:16:27.149Z,3.97
2022-11-08T03:18:54.313Z,3.85
2022-11-08T03:21:21.488Z,5.05
2022-11-08T03:23:48.812Z,4.10
2022-11-08T03:26:16.074Z,4.22
2022-11-08T03:28:43.261Z,3.58
2022-11-08T03:31:10.333Z,4.55
2022-11-08T03:33:37.601Z,4.10
2022-11-08T03:36:04.995Z,4.13
2022-11-08T03:38:32.021Z,4.68
2022-11-08T03:40:59.292Z,3.85
2022-11-08T03:43:26.986Z,4.93
2022-11-08T03:45:54.032Z,5.05
2022-11-08T03:48:23.642Z,4.18
2022-11-08T03:50:52.061Z,3.58
2022-11-08T03:53:19.554Z,4.45
2022-11-08T03:55:46.629Z,4.55
2022-11-08T03:58:13.750Z,4.18
2022-11-08T04:00:41.156Z,4.80
2022-11-08T04:03:08.270Z,4.20
2022-11-08T04:05:35.580Z,4.97
2022-11-08T04:08:04.872Z,4.30
2022-11-08T04:10:31.963Z,4.10
2022-11-08T04:13:20.649Z,4.03
2022-11-08T04:15:53.965Z,4.50
2022-11-08T04:18:39.674Z,3.67
2022-11-08T04:21:24.683Z,4.80
2022-11-08T04:23:52.931Z,4.68
2022-11-08T04:26:21.762Z,4.88
2022-11-08T04:28:49.068Z,4.50
2022-11-08T04:31:18.582Z,5.82
2022-11-08T04:33:45.994Z,5.30
2022-11-08T04:36:17.429Z,5.20
2022-11-08T04:41:16.281Z,5.75
2022-11-08T04:43:45.427Z,4.88
2022-11-08T04:46:15.171Z,3.83
2022-11-08T04:48:43.555Z,4.72
2022-11-08T04:51:27.883Z,3.58
2022-11-08T04:53:57.807Z,4.22
2022-11-08T04:56:26.090Z,4.40
2022-11-08T04:58:56.035Z,5.03
2022-11-08T05:01:26.746Z,5.10
2022-11-08T05:03:55.113Z,4.68
2022-11-08T05:06:25.388Z,4.82
2022-11-08T05:08:54.378Z,5.45
2022-11-08T05:11:23.599Z,4.55
2022-11-08T05:13:51.490Z,5.13
2022-11-08T05:16:21.653Z,4.60
2022-11-08T05:18:49.250Z,4.43
2022-11-08T05:21:36.440Z,4.72
2022-11-08T05:24:05.354Z,4.20
2022-11-08T05:26:36.273Z,4.60
2022-11-08T05:29:04.224Z,4.60
2022-11-08T05:31:31.597Z,4.30
2022-11-08T05:34:00.239Z,5.10
2022-11-08T05:36:28.123Z,4.10
2022-11-08T05:38:56.097Z,4.15
2022-11-08T05:41:24.377Z,3.80
2022-11-08T05:43:53.482Z,4.30
2022-11-08T05:46:22.252Z,4.53
2022-11-08T05:48:49.646Z,4.50
2022-11-08T05:51:18.268Z,4.10
2022-11-08T05:53:47.153Z,4.30
2022-11-08T05:56:14.824Z,4.80
2022-11-08T05:58:41.915Z,4.57
2022-11-08T06:01:11.499Z,4.75
2022-11-08T06:03:39.499Z,4.25
2022-11-08T06:06:15.253Z,4.25
2022-11-08T06:08:47.505Z,4.07
2022-11-08T06:11:21.766Z,4.03
2022-11-08T06:13:49.245Z,4.05
2022-11-08T06:16:18.323Z,4.20
2022-11-08T06:18:45.635Z,3.80
2022-11-08T06:21:15.758Z,4.35
2022-11-08T06:23:43.541Z,3.63
2022-11-08T06:26:11.061Z,4.03
2022-11-08T06:28:38.642Z,4.30
2022-11-08T06:31:06.180Z,3.33
2022-11-08T06:33:33.321Z,4.35
2022-11-08T06:36:00.420Z,3.75
2022-11-08T06:38:27.906Z,4.07
2022-11-08T06:40:55.036Z,3.80
2022-11-08T06:43:22.467Z,4.32
2022-11-08T06:45:49.915Z,3.15
2022-11-08T06:48:16.946Z,3.47
2022-11-08T06:50:44.443Z,3.30
2022-11-08T06:53:13.624Z,3.45
2022-11-08T06:55:41.214Z,4.00
2022-11-08T06:58:08.522Z,4.07
2022-11-08T07:00:35.554Z,3.17
2022-11-08T07:03:03.909Z,3.10
2022-11-08T07:05:32.884Z,3.72
2022-11-08T07:08:00.819Z,3.63
2022-11-08T07:10:30.511Z,3.78
2022-11-08T07:13:03.098Z,3.15
2022-11-08T07:15:30.841Z,3.78
2022-11-08T07:18:13.106Z,3.42
2022-11-08T07:20:41.108Z,3.85
2022-11-08T07:23:09.639Z,4.00
2022-11-08T07:25:37.424Z,3.28
2022-11-08T07:28:07.542Z,3.90
2022-11-08T07:30:36.025Z,4.00
2022-11-08T07:33:03.152Z,3.60
2022-11-08T07:35:31.293Z,3.90
2022-11-08T07:37:58.587Z,3.28
2022-11-08T07:40:26.044Z,3.42
2022-11-08T07:43:14.798Z,3.45
2022-11-08T07:45:42.450Z,3.58
2022-11-08T07:48:13.230Z,3.70
2022-11-08T07:50:42.108Z,3.90
2022-11-08T07:53:10.018Z,3.38
2022-11-08T07:55:41.121Z,3.78
2022-11-08T07:58:09.915Z,3.47
2022-11-08T08:00:38.454Z,3.22
2022-11-08T08:03:07.832Z,4.13
2022-11-08T08:05:37.143Z,3.38
2022-11-08T08:08:05.261Z,3.63
2022-11-08T08:10:32.740Z,3.50
2022-11-08T08:13:00.091Z,3.75
2022-11-08T08:15:27.157Z,3.47
2022-11-08T08:17:54.556Z,3.05
2022-11-08T08:20:21.907Z,3.67
2022-11-08T08:22:50.924Z,3.78
2022-11-08T08:25:19.014Z,3.50
2022-11-08T08:27:57.319Z,3.13
2022-11-08T08:30:25.765Z,3.00
2022-11-08T08:33:22.057Z,3.22
2022-11-08T08:35:43.388Z,2.90
2022-11-08T08:38:11.899Z,2.72
2022-11-08T08:40:39.395Z,2.78
2022-11-08T08:43:07.135Z,2.60
2022-11-08T08:45:35.053Z,2.70
2022-11-08T08:48:03.003Z,2.50
2022-11-08T08:50:32.678Z,2.75
2022-11-08T08:53:04.978Z,2.30
2022-11-08T08:55:32.975Z,2.00
2022-11-08T08:57:59.974Z,2.03
2022-11-08T09:03:15.508Z,1.65
2022-11-08T09:05:44.327Z,1.20
2022-11-08T09:08:12.813Z,1.05
2022-11-08T09:10:40.246Z,1.17
2022-11-08T09:13:07.285Z,1.20
2022-11-08T09:15:34.474Z,1.17
2022-11-08T09:18:01.651Z,1.02
2022-11-08T09:20:28.802Z,0.57
2022-11-08T09:22:55.818Z,0.60
2022-11-08T09:25:22.907Z,0.73
2022-11-08T09:27:50.247Z,0.75
2022-11-08T09:30:17.334Z,0.50
2022-11-08T09:33:00.372Z,0.68
2022-11-08T09:35:28.582Z,0.50
2022-11-08T09:37:55.780Z,0.77
2022-11-08T09:40:47.206Z,0.88
2022-11-08T09:43:36.524Z,1.00
2022-11-08T09:46:03.784Z,1.27
2022-11-08T09:48:43.192Z,1.15
2022-11-08T09:51:16.660Z,1.50
2022-11-08T09:53:54.464Z,1.65
2022-11-08T09:56:21.644Z,1.63
2022-11-08T09:59:03.356Z,1.80
2022-11-08T10:01:36.062Z,2.08
2022-11-08T10:04:08.701Z,2.53
2022-11-08T10:07:02.213Z,2.50
2022-11-08T10:10:04.424Z,3.13
2022-11-08T10:13:01.476Z,3.35
2022-11-08T10:15:46.386Z,5.18
2022-11-08T10:18:44.059Z,3.85
2022-11-08T10:21:30.754Z,4.95
2022-11-08T10:24:29.636Z,4.32
2022-11-08T10:26:59.331Z,4.60
2022-11-08T10:29:40.482Z,4.65
2022-11-08T10:32:24.231Z,5.10
2022-11-08T10:35:31.041Z,6.10
2022-11-08T10:38:00.224Z,4.95
2022-11-08T10:40:45.942Z,5.20
2022-11-08T10:43:19.878Z,5.50
2022-11-08T10:45:47.326Z,4.80
2022-11-08T10:48:14.724Z,5.35
2022-11-08T10:50:48.990Z,5.60
2022-11-08T10:53:27.631Z,4.75
2022-11-08T10:56:07.020Z,7.03
2022-11-08T10:58:44.020Z,6.05
2022-11-08T11:01:20.773Z,5.10
2022-11-08T11:03:49.907Z,5.55
2022-11-08T11:06:32.823Z,6.03
2022-11-08T11:09:21.205Z,5.75
2022-11-08T11:11:58.151Z,5.32
2022-11-08T11:14:25.759Z,5.28
2022-11-08T11:17:03.110Z,5.70
2022-11-08T11:19:31.095Z,4.90
2022-11-08T11:22:05.033Z,5.63
2022-11-08T11:24:32.457Z,5.10
2022-11-08T11:27:05.468Z,4.57
2022-11-08T11:29:37.414Z,4.90
2022-11-08T11:32:25.368Z,5.50
2022-11-08T11:34:54.442Z,4.72
2022-11-08T11:37:32.648Z,4.80
2022-11-08T11:39:59.642Z,4.85
2022-11-08T11:43:00.030Z,5.10
2022-11-08T11:45:40.762Z,5.03
2022-11-08T11:48:28.949Z,5.03
2022-11-08T11:50:57.196Z,5.10
2022-11-08T11:53:39.001Z,5.15
2022-11-08T11:56:30.938Z,4.82
2022-11-08T11:59:25.391Z,4.60
2022-11-08T12:01:52.716Z,5.95
2022-11-08T12:04:59.622Z,4.72
2022-11-08T12:07:28.637Z,5.38
2022-11-08T12:10:17.765Z,4.80
2022-11-08T12:13:20.936Z,5.15
2022-11-08T12:16:00.747Z,5.25
2022-11-08T12:18:58.215Z,4.70
2022-11-08T12:22:00.463Z,5.03
2022-11-08T12:24:42.490Z,4.97
2022-11-08T12:27:32.608Z,4.50
2022-11-08T12:30:03.598Z,4.80
2022-11-08T12:32:33.835Z,4.72
2022-11-08T12:35:17.689Z,4.50
2022-11-08T12:38:04.003Z,4.25
2022-11-08T12:40:38.763Z,4.75
2022-11-08T12:43:16.919Z,4.97
2022-11-08T12:46:13.312Z,5.30
2022-11-08T12:49:16.192Z,4.35
2022-11-08T12:52:27.670Z,4.40
2022-11-08T12:55:01.113Z,5.25
2022-11-08T12:57:29.283Z,5.03
2022-11-08T13:00:06.944Z,5.70
2022-11-08T13:02:37.520Z,5.05
2022-11-08T13:05:11.703Z,5.40
2022-11-08T13:08:00.130Z,6.07
2022-11-08T13:10:39.291Z,5.72
2022-11-08T13:13:45.193Z,6.25
2022-11-08T13:16:21.621Z,6.40
2022-11-08T13:18:59.805Z,6.30
2022-11-08T13:21:30.324Z,4.97
2022-11-08T13:24:13.949Z,5.67
2022-11-08T13:26:43.505Z,5.60
2022-11-08T13:29:16.097Z,5.35
2022-11-08T13:32:13.009Z,5.20
2022-11-08T13:34:45.798Z,5.97
2022-11-08T13:37:43.187Z,4.70
2022-11-08T13:40:13.252Z,6.07
2022-11-08T13:43:19.064Z,5.25
2022-11-08T13:45:46.634Z,5.25
2022-11-08T13:48:29.192Z,5.65
2022-11-08T13:50:57.388Z,4.68
2022-11-08T13:53:48.076Z,5.85
2022-11-08T13:56:39.891Z,5.32
2022-11-08T13:59:45.357Z,4.75
2022-11-08T14:02:44.648Z,5.95
2022-11-08T14:05:31.810Z,5.13
2022-11-08T14:08:13.065Z,5.28
2022-11-08T14:11:08.754Z,9.27
2022-11-08T14:14:40.854Z,10.15
2022-11-08T14:17:20.167Z,7.50
2022-11-08T14:19:48.639Z,18.58
2022-11-08T14:22:28.051Z,7.45
2022-11-08T14:25:00.707Z,6.97
2022-11-08T14:27:39.169Z,6.28
2022-11-08T14:30:15.097Z,7.40
2022-11-08T14:32:42.333Z,7.85
2022-11-08T14:35:14.949Z,6.40
2022-11-08T14:37:44.452Z,7.20
2022-11-08T14:40:23.518Z,5.45
2022-11-08T14:42:51.663Z,5.82
2022-11-08T14:45:25.742Z,6.30
2022-11-08T14:48:01.838Z,6.15
2022-11-08T14:50:32.703Z,6.88
2022-11-08T14:53:32.986Z,5.88
2022-11-08T14:56:18.344Z,6.00
2022-11-08T14:58:46.855Z,6.43
2022-11-08T15:01:15.825Z,7.15
2022-11-08T15:03:52.722Z,6.30
2022-11-08T15:06:19.906Z,6.57
2022-11-08T15:08:51.955Z,6.70
2022-11-08T15:11:52.615Z,7.00
2022-11-08T15:14:23.455Z,5.80
2022-11-08T15:16:57.324Z,6.80
2022-11-08T15:19:47.427Z,6.00
2022-11-08T15:22:32.715Z,6.70
2022-11-08T15:25:02.523Z,6.53
2022-11-08T15:27:29.805Z,6.30
2022-11-08T15:30:03.221Z,5.90
2022-11-08T15:32:37.505Z,5.68
2022-11-08T15:35:06.328Z,5.40
2022-11-08T15:37:39.296Z,5.45
2022-11-08T15:40:17.113Z,6.25
2022-11-08T15:42:46.296Z,6.45
2022-11-08T15:45:13.271Z,5.70
2022-11-08T15:47:43.138Z,5.57
2022-11-08T15:50:15.200Z,5.45
2022-11-08T15:52:43.138Z,5.68
2022-11-08T15:55:15.713Z,5.97
2022-11-08T15:57:45.064Z,5.97
2022-11-08T16:00:26.774Z,4.72
2022-11-08T16:02:54.739Z,5.85
2022-11-08T16:05:27.492Z,5.88
2022-11-08T16:07:55.462Z,5.22
2022-11-08T16:10:32.766Z,5.80
2022-11-08T16:13:01.297Z,5.10
2022-11-08T16:15:32.390Z,5.38
2022-11-08T16:18:01.008Z,5.47
2022-11-08T16:20:36.200Z,7.07
2022-11-08T16:23:08.053Z,6.07
2022-11-08T16:25:38.907Z,6.72
2022-11-08T16:28:13.590Z,5.55
2022-11-08T16:30:46.263Z,4.95
2022-11-08T16:33:27.723Z,6.10
2022-11-08T16:35:56.355Z,4.80
2022-11-08T16:38:27.434Z,4.63
2022-11-08T16:40:55.311Z,9.63
2022-11-08T16:43:22.463Z,8.25
2022-11-08T16:46:06.667Z,8.00
2022-11-08T16:48:38.429Z,9.25
2022-11-08T16:51:08.204Z,7.50
2022-11-08T16:53:36.874Z,9.70
2022-11-08T16:56:04.196Z,5.15
2022-11-08T16:58:31.401Z,9.65
2022-11-08T17:00:58.647Z,7.13
2022-11-08T17:03:29.735Z,5.88
2022-11-08T17:05:57.796Z,5.03
2022-11-08T17:08:25.675Z,5.70
2022-11-08T17:10:53.854Z,6.38
2022-11-08T17:13:21.349Z,5.05
2022-11-08T17:15:50.041Z,4.90
2022-11-08T17:18:21.152Z,3.78
2022-11-08T17:23:16.573Z,4.82
2022-11-08T17:25:44.685Z,4.25
2022-11-08T17:28:12.734Z,6.00
2022-11-08T17:30:44.756Z,4.13
2022-11-08T17:33:13.252Z,5.47
2022-11-08T17:35:44.087Z,4.22
2022-11-08T17:38:12.320Z,4.95
2022-11-08T17:40:39.604Z,6.75
2022-11-08T17:43:06.606Z,6.90
2022-11-08T17:45:33.635Z,4.93
2022-11-08T17:48:00.676Z,4.32
2022-11-08T17:50:27.712Z,5.00
2022-11-08T17:52:55.054Z,3.97
2022-11-08T17:55:22.119Z,5.82
2022-11-08T17:57:49.229Z,3.80
2022-11-08T18:00:16.809Z,3.50
2022-11-08T18:02:45.021Z,4.00
2022-11-08T18:05:12.043Z,3.80
2022-11-08T18:07:40.213Z,3.53
2022-11-08T18:10:08.165Z,3.30
2022-11-08T18:12:35.855Z,5.15
2022-11-08T18:15:04.001Z,3.63
2022-11-08T18:17:31.022Z,3.13
2022-11-08T18:19:58.192Z,3.05
2022-11-08T18:22:25.373Z,3.30
2022-11-08T18:24:52.493Z,3.25
2022-11-08T18:27:19.679Z,2.72
2022-11-08T18:29:46.928Z,3.40
2022-11-08T18:32:13.963Z,2.70
2022-11-08T18:34:40.983Z,3.10
2022-11-08T18:37:08.049Z,2.80
2022-11-08T18:39:35.158Z,2.95
2022-11-08T18:42:02.370Z,2.95
2022-11-08T18:44:29.411Z,2.70
2022-11-08T18:46:56.666Z,2.60
2022-11-08T18:49:24.155Z,3.65
2022-11-08T18:51:52.769Z,3.33
2022-11-08T18:54:20.560Z,3.03
2022-11-08T18:56:47.694Z,3.47
2022-11-08T18:59:14.862Z,2.42
2022-11-08T19:01:42.038Z,3.00
2022-11-08T19:04:09.512Z,2.65
2022-11-08T19:06:38.150Z,3.10
2022-11-08T19:09:05.247Z,2.95
2022-11-08T19:11:32.975Z,3.30
2022-11-08T19:14:02.075Z,3.00
2022-11-08T19:16:29.752Z,3.15
2022-11-08T19:18:56.844Z,3.47
2022-11-08T19:21:26.322Z,3.25
2022-11-08T19:23:57.857Z,3.65
2022-11-08T19:28:57.337Z,3.13
2022-11-08T19:33:53.758Z,3.10
2022-11-08T19:36:23.449Z,3.60
2022-11-08T19:38:52.485Z,3.10
2022-11-08T19:41:22.288Z,3.40
2022-11-08T19:43:49.931Z,4.35
2022-11-08T19:46:22.720Z,3.67
2022-11-08T19:48:51.715Z,3.47
2022-11-08T19:51:27.470Z,4.05
2022-11-08T19:54:01.573Z,4.38
2022-11-08T19:56:57.630Z,3.42
2022-11-08T19:59:18.091Z,3.83
2022-11-08T20:01:46.554Z,3.45
2022-11-08T20:04:14.923Z,3.83
2022-11-08T20:06:43.932Z,3.42
2022-11-08T20:09:11.727Z,3.97
2022-11-08T20:11:43.256Z,4.35
2022-11-08T20:16:43.104Z,3.45
2022-11-08T20:19:13.545Z,4.07
2022-11-08T20:21:42.356Z,3.47
2022-11-08T20:24:10.640Z,4.03
2022-11-08T20:26:38.711Z,3.22
2022-11-08T20:29:07.601Z,3.90
2022-11-08T20:31:35.343Z,3.72
2022-11-08T20:34:06.022Z,3.42
2022-11-08T20:36:35.260Z,3.63
2022-11-08T20:39:07.057Z,3.60
2022-11-08T20:41:37.840Z,3.45
2022-11-08T20:44:06.703Z,4.22
2022-11-08T20:46:34.669Z,3.88
2022-11-08T20:49:02.053Z,4.22
2022-11-08T20:51:31.518Z,4.20
2022-11-08T20:54:00.382Z,4.03
2022-11-08T20:56:29.096Z,3.47
2022-11-08T20:58:56.971Z,3.47
2022-11-08T21:01:30.932Z,4.20
2022-11-08T21:03:58.588Z,3.90
2022-11-08T21:06:27.876Z,3.60
2022-11-08T21:09:02.712Z,3.30
2022-11-08T21:11:34.729Z,3.88
2022-11-08T21:14:03.000Z,4.32
2022-11-08T21:16:38.221Z,4.32
2022-11-08T21:19:10.248Z,3.63
2022-11-08T21:21:37.841Z,3.75
2022-11-08T21:24:05.179Z,3.28
2022-11-08T21:26:36.486Z,4.18
2022-11-08T21:31:32.248Z,2.85
2022-11-08T21:34:00.355Z,3.58
2022-11-08T21:36:29.374Z,4.28
2022-11-08T21:38:56.683Z,3.72
2022-11-08T21:41:23.813Z,3.30
2022-11-08T21:43:50.816Z,3.65
2022-11-08T21:46:29.614Z,3.55
2022-11-08T21:49:01.838Z,3.45
2022-11-08T21:51:30.613Z,3.72
2022-11-08T21:53:59.353Z,3.58
2022-11-08T21:56:30.613Z,3.60
2022-11-08T21:58:58.254Z,3.17
2022-11-08T22:01:29.895Z,3.67
2022-11-08T22:03:58.424Z,3.47
2022-11-08T22:06:26.298Z,3.88
2022-11-08T22:08:53.606Z,3.17
2022-11-08T22:11:20.966Z,3.17
2022-11-08T22:13:48.176Z,3.50
2022-11-08T22:16:15.234Z,3.17
2022-11-08T22:19:03.543Z,3.22
2022-11-08T22:21:38.875Z,3.60
2022-11-08T22:24:06.923Z,3.22
2022-11-08T22:26:34.437Z,3.33
2022-11-08T22:29:03.565Z,3.10
2022-11-08T22:31:31.595Z,3.08
2022-11-08T22:33:58.913Z,3.80
2022-11-08T22:36:26.399Z,3.33
2022-11-08T22:38:53.633Z,3.60
2022-11-08T22:41:23.627Z,3.67
2022-11-08T22:43:51.224Z,3.08
2022-11-08T22:46:18.296Z,3.83
2022-11-08T22:48:45.810Z,3.17
2022-11-08T22:51:13.292Z,3.70
2022-11-08T22:53:41.676Z,2.97
2022-11-08T22:56:11.482Z,3.20
2022-11-08T22:58:39.456Z,3.55
2022-11-08T23:01:07.883Z,3.65
2022-11-08T23:03:34.874Z,3.22
2022-11-08T23:06:02.072Z,3.55
2022-11-08T23:08:29.190Z,3.30
2022-11-08T23:11:16.948Z,3.65
2022-11-08T23:14:03.088Z,3.75
2022-11-08T23:16:35.304Z,3.58
2022-11-08T23:19:26.798Z,3.17
2022-11-08T23:22:13.685Z,3.10
2022-11-08T23:24:42.633Z,3.05
2022-11-08T23:27:30.943Z,3.38
2022-11-08T23:30:16.549Z,3.20
2022-11-08T23:32:46.240Z,3.10
2022-11-08T23:35:14.118Z,2.75
2022-11-08T23:37:41.461Z,3.17
2022-11-08T23:40:30.960Z,3.83
2022-11-08T23:43:28.696Z,3.15
2022-11-08T23:45:56.448Z,3.63
2022-11-08T23:48:23.689Z,2.90
2022-11-08T23:50:54.006Z,3.13
2022-11-08T23:53:25.302Z,3.10
2022-11-08T23:55:53.823Z,3.70
2022-11-08T23:58:21.476Z,3.35
